Agate Beach, Washington
Current Conditions -  °F | °C
As of 3:03 AM on Wednesday 26 Nov 2014 (Local Time) from KCLM Reporting Station
Broken Clouds Broken Clouds  
Wind Chill: 44°   Ceiling: 6000
Heat Index: 44°   Visibility: 9mi
Dew Point: 43°   Wind: 0mph
Humidity: 96%   Direction: NA
Pressure: 30.11"   Gusts: NA
Location:  48.1359°N, 123.734°W
Report Text: KCLM 261103Z AUTO 00000KT 9SM SCT045 BKN060 07/06 A3011 RMK AO2 T00670061
Loading
Personal Weather Stations






























Interactive Weather Map New forecast layout! Learn more

10-Day Weather Forecast

Advertisements
Track Severe Weather on mobile